Terminal Aerodrome Forecast
Issued by NWS Cleveland, OH

Home | Current Version | Previous Version | Text Only | Print | Product List | Glossary On
Versions: 1 2 3 4 5 6 7 8 9 10 11 12 13 14 15 16 17
000
FTUS41 KCLE 241741
TAFERI
TAF
KERI 241741Z 2418/2518 04006KT P6SM VCSH OVC070
     FM250000 10012KT P6SM -SHRA OVC035
     FM250600 12015G22KT 4SM -SHRA OVC025
     FM251000 14012KT P6SM VCSH OVC015=

USA.gov is the U.S. government's official web portal to all federal, state and local government web resources and services.